EZY519 EGGP-EGNS
Flight info
| Callsign | EZY519 |
|---|---|
| Flight time | 0h 23m |
| Altitude | 12000 |
| Route | WAL L10 KELLY |
| Aircraft | A319/M-SDE2E3FGIJ1RWXYZ/LB1 |
Departure
| Time | 2026-05-04 08:27 |
|---|---|
| Airport | Liverpool John Lennon Airport (EGGP) |
Arrival
| Time | 2026-05-04 08:51 |
|---|---|
| Airport | Isle of Man Airport (EGNS) |
| Time | Latitude | Longitude | Altitude | Speed | Heading |
|---|---|---|---|---|---|
| 2026-05-04 08:06 | 53.33666 | -2.85514 | 89 ft | 0 kts | 356° |
| 2026-05-04 08:13 | 53.33656 | -2.85512 | 86 ft | 3 kts | 359° |
| 2026-05-04 08:13 | 53.33638 | -2.85511 | 87 ft | 3 kts | 357° |
| 2026-05-04 08:13 | 53.33621 | -2.85514 | 88 ft | 3 kts | 40° |
| 2026-05-04 08:13 | 53.33612 | -2.85537 | 91 ft | 3 kts | 83° |
| 2026-05-04 08:14 | 53.33611 | -2.85569 | 90 ft | 2 kts | 86° |
| 2026-05-04 08:14 | 53.33610 | -2.85588 | 90 ft | 3 kts | 86° |
| 2026-05-04 08:14 | 53.33609 | -2.85608 | 89 ft | 0 kts | 86° |
| 2026-05-04 08:16 | 53.33609 | -2.85609 | 89 ft | 0 kts | 86° |
| 2026-05-04 08:17 | 53.33609 | -2.85608 | 89 ft | 0 kts | 86° |
| 2026-05-04 08:19 | 53.33491 | -2.85809 | 84 ft | 11 kts | 268° |
| 2026-05-04 08:19 | 53.33486 | -2.85936 | 85 ft | 11 kts | 266° |
| 2026-05-04 08:20 | 53.33480 | -2.86069 | 86 ft | 12 kts | 265° |
| 2026-05-04 08:20 | 53.33473 | -2.86208 | 84 ft | 12 kts | 265° |
| 2026-05-04 08:20 | 53.33466 | -2.86353 | 87 ft | 13 kts | 265° |
| 2026-05-04 08:20 | 53.33460 | -2.86507 | 82 ft | 15 kts | 266° |
| 2026-05-04 08:21 | 53.33433 | -2.86695 | 74 ft | 17 kts | 227° |
| 2026-05-04 08:21 | 53.33402 | -2.86721 | 71 ft | 0 kts | 204° |
| 2026-05-04 08:24 | 53.33402 | -2.86722 | 77 ft | 1 kts | 204° |
| 2026-05-04 08:25 | 53.33375 | -2.86729 | 71 ft | 7 kts | 180° |
| 2026-05-04 08:25 | 53.33317 | -2.86684 | 71 ft | 10 kts | 143° |
| 2026-05-04 08:25 | 53.33289 | -2.86598 | 77 ft | 0 kts | 84° |
| 2026-05-04 08:27 | 53.33500 | -2.82102 | 1188 ft | 139 kts | 83° |
| 2026-05-04 08:28 | 53.33602 | -2.80423 | 1632 ft | 155 kts | 83° |
| 2026-05-04 08:28 | 53.33933 | -2.78495 | 1824 ft | 191 kts | 62° |
| 2026-05-04 08:28 | 53.34827 | -2.76683 | 2195 ft | 217 kts | 38° |
| 2026-05-04 08:28 | 53.36271 | -2.75593 | 2721 ft | 243 kts | 9° |
| 2026-05-04 08:29 | 53.37982 | -2.75855 | 3560 ft | 256 kts | 341° |
| 2026-05-04 08:29 | 53.39423 | -2.77636 | 4427 ft | 265 kts | 308° |
| 2026-05-04 08:29 | 53.40104 | -2.80513 | 5423 ft | 273 kts | 275° |
| 2026-05-04 08:31 | 53.38703 | -3.03582 | 11208 ft | 324 kts | 280° |
| 2026-05-04 08:33 | 53.44417 | -3.26815 | 12059 ft | 302 kts | 309° |
| 2026-05-04 08:33 | 53.45710 | -3.29601 | 12062 ft | 303 kts | 309° |
| 2026-05-04 08:35 | 53.54643 | -3.50025 | 12069 ft | 314 kts | 306° |
| 2026-05-04 08:35 | 53.55918 | -3.53011 | 12074 ft | 315 kts | 306° |
| 2026-05-04 08:35 | 53.57195 | -3.56001 | 12076 ft | 315 kts | 306° |
| 2026-05-04 08:35 | 53.58471 | -3.58994 | 12081 ft | 315 kts | 306° |
| 2026-05-04 08:37 | 53.66088 | -3.77048 | 12080 ft | 315 kts | 306° |
| 2026-05-04 08:37 | 53.67346 | -3.80078 | 12080 ft | 316 kts | 305° |
| 2026-05-04 08:37 | 53.68605 | -3.83113 | 12087 ft | 315 kts | 305° |
| 2026-05-04 08:38 | 53.69860 | -3.86140 | 12092 ft | 315 kts | 305° |
| 2026-05-04 08:38 | 53.71113 | -3.89162 | 12092 ft | 314 kts | 305° |
| 2026-05-04 08:38 | 53.72366 | -3.92180 | 12092 ft | 314 kts | 305° |
| 2026-05-04 08:40 | 53.81048 | -4.13202 | 10983 ft | 307 kts | 305° |
| 2026-05-04 08:40 | 53.82263 | -4.16152 | 10599 ft | 304 kts | 305° |
| 2026-05-04 08:40 | 53.83467 | -4.19085 | 10198 ft | 302 kts | 305° |
| 2026-05-04 08:41 | 53.84659 | -4.21992 | 9922 ft | 296 kts | 305° |
| 2026-05-04 08:41 | 53.85809 | -4.24805 | 9671 ft | 286 kts | 305° |
| 2026-05-04 08:41 | 53.86936 | -4.27562 | 9056 ft | 283 kts | 305° |
| 2026-05-04 08:41 | 53.88047 | -4.30285 | 8642 ft | 280 kts | 305° |
| 2026-05-04 08:42 | 53.89151 | -4.32992 | 8242 ft | 278 kts | 305° |
| 2026-05-04 08:42 | 53.90251 | -4.35680 | 7852 ft | 276 kts | 306° |
| 2026-05-04 08:42 | 53.91209 | -4.38442 | 7477 ft | 275 kts | 296° |
| 2026-05-04 08:42 | 53.91990 | -4.41380 | 7116 ft | 272 kts | 295° |
| 2026-05-04 08:43 | 53.92747 | -4.44302 | 6755 ft | 269 kts | 294° |
| 2026-05-04 08:43 | 53.93493 | -4.47198 | 6383 ft | 267 kts | 294° |
| 2026-05-04 08:43 | 53.94234 | -4.50085 | 5980 ft | 266 kts | 294° |
| 2026-05-04 08:43 | 53.94967 | -4.52955 | 5555 ft | 264 kts | 294° |
| 2026-05-04 08:44 | 53.95694 | -4.55815 | 5140 ft | 263 kts | 294° |
| 2026-05-04 08:44 | 53.96412 | -4.58659 | 4724 ft | 262 kts | 294° |
| 2026-05-04 08:46 | 54.00160 | -4.77191 | 3676 ft | 211 kts | 289° |
| 2026-05-04 08:46 | 54.00554 | -4.79597 | 3552 ft | 211 kts | 289° |
| 2026-05-04 08:46 | 54.00988 | -4.81974 | 3422 ft | 210 kts | 297° |
| 2026-05-04 08:46 | 54.01654 | -4.84182 | 3284 ft | 207 kts | 313° |
| 2026-05-04 08:47 | 54.02820 | -4.85533 | 3141 ft | 206 kts | 341° |
| 2026-05-04 08:47 | 54.04208 | -4.85780 | 2995 ft | 200 kts | 9° |
| 2026-05-04 08:47 | 54.05483 | -4.84931 | 2902 ft | 194 kts | 33° |
| 2026-05-04 08:47 | 54.06367 | -4.83273 | 2717 ft | 189 kts | 58° |
| 2026-05-04 08:48 | 54.06742 | -4.81153 | 2479 ft | 189 kts | 79° |
| 2026-05-04 08:48 | 54.06924 | -4.78951 | 2193 ft | 186 kts | 78° |
| 2026-05-04 08:48 | 54.07100 | -4.76772 | 1897 ft | 185 kts | 77° |
| 2026-05-04 08:48 | 54.07268 | -4.74660 | 1611 ft | 175 kts | 79° |
| 2026-05-04 08:49 | 54.07421 | -4.72711 | 1345 ft | 156 kts | 79° |
| 2026-05-04 08:50 | 54.08218 | -4.63253 | 54 ft | 128 kts | 76° |
| 2026-05-04 08:50 | 54.08377 | -4.61983 | 40 ft | 78 kts | 77° |
| 2026-05-04 08:51 | 54.08437 | -4.61516 | 38 ft | 12 kts | 77° |
| 2026-05-04 08:51 | 54.08491 | -4.61428 | 42 ft | 11 kts | 360° |
| 2026-05-04 08:51 | 54.08533 | -4.61511 | 43 ft | 10 kts | 280° |
| 2026-05-04 08:51 | 54.08541 | -4.61635 | 42 ft | 11 kts | 276° |
| 2026-05-04 08:52 | 54.08550 | -4.61770 | 42 ft | 12 kts | 274° |
| 2026-05-04 08:52 | 54.08547 | -4.61923 | 45 ft | 13 kts | 263° |
| 2026-05-04 08:52 | 54.08531 | -4.62061 | 47 ft | 12 kts | 258° |
| 2026-05-04 08:52 | 54.08514 | -4.62193 | 48 ft | 11 kts | 258° |
| 2026-05-04 08:53 | 54.08500 | -4.62308 | 51 ft | 9 kts | 258° |
| 2026-05-04 08:54 | 54.08506 | -4.63012 | 44 ft | 8 kts | 348° |
| 2026-05-04 08:55 | 54.08546 | -4.63027 | 46 ft | 4 kts | 348° |
| 2026-05-04 08:55 | 54.08569 | -4.63039 | 46 ft | 3 kts | 336° |
| 2026-05-04 08:55 | 54.08594 | -4.63074 | 44 ft | 6 kts | 318° |
| 2026-05-04 08:55 | 54.08620 | -4.63117 | 45 ft | 4 kts | 315° |
| 2026-05-04 08:57 | 54.08633 | -4.63262 | 45 ft | 2 kts | 221° |
| 2026-05-04 09:01 | 54.08629 | -4.63268 | 45 ft | 0 kts | 222° |